Главная страница
METAR-TAF:

METAR-TAF

Аэропорты :

Сиань, Китай

широта: 34-26N, долгота: 108-45E, высота над уровнем моря: 479 м

Текущие метеонаблюдения

Эта сводка был подготовлена 1 час и 9 минут назад, в 11:00 UTC
Ветер 4 Узел от северо-восточный
Температура 5°C
Влажность 41%
Давление 1018 hPa
Видимость: 4000 м
мгла

METAR: ZLXY 191100Z 05002MPS 4000 HZ NSC 05/M07 Q1018 NOSIG

Время: 20:09 (12:09 UTC)

Прогноз

Эта сводка был подготовлена 2 часа и 54 минут назад, в 09:15 UTC
Прогноз действительный с 19-го 12 UTC до 20-го 12 UTC
Ветер 6 Узел от восточно-северо-восточный
Видимость: 3000 м
мгла
изменения
С 19-го 21 UTC до 19-го 22 UTC
Видимость: 2000 м
дымка
изменения
С 20-го 02 UTC до 20-го 03 UTC
Видимость: 3000 м
мгла

TAF: ZLXY 190915Z 1912/2012 06003MPS 3000 HZ NSC TX09/2007Z TNM05/22Z BECMG 1921/1922 2000 BR BECMG 2002/2003 3000 HZ

Метеонаблюдения и прогнозы для более 4000 аэропортов (сводки METAR и TAF).

Имеющиеся станции представлены на карте желтыми и красными точками.

Чтобы увидеть название станции, наведите на нее мышь.

Затем щелкните, чтобы увидеть метеонаблюдения и метеопрогнозы.

Управление картой: чтобы увеличить масштаб, щелкните зеленые кнопки с черным крестиком; чтобы уменьшить масштаб, щелкните зеленую кнопку с тире; для просмотра соседних карт щелкайте зеленые стрелки.


METAR-TAF: